Time;durP1;ratioP1;P1;durP2;ratioP2;P2;SDS_P1;SDS_P2;PMS_P1;PMS_P2;Temp;Humidity;BMP_temperature;BMP_pressure;BME280_temperature;BME280_humidity;BME280_pressure;Samples;Min_cycle;Max_cycle;Signal;HPM_P1;HPM_P2
2020/12/19 00:02:39;;;;;;;82.17;51.03;;;;;;;-1.23;88.45;100529.73;517465;1095;65196;-62
2020/12/19 00:12:45;;;;;;;83.00;48.50;;;;;;;-1.28;89.10;100537.46;517193;1097;65588;-61
2020/12/19 00:22:50;;;;;;;85.60;49.20;;;;;;;-1.34;89.07;100521.98;516757;1095;65256;-64
2020/12/19 00:32:54;;;;;;;72.20;47.33;;;;;;;-1.43;88.85;100525.42;517386;1095;65490;-65
2020/12/19 00:42:58;;;;;;;70.10;42.50;;;;;;;-1.55;88.43;100518.56;518114;1090;65176;-68
2020/12/19 00:53:02;;;;;;;76.45;43.40;;;;;;;-1.70;88.64;100527.12;517315;1095;65507;-65
2020/12/19 01:03:06;;;;;;;70.83;42.00;;;;;;;-1.72;88.02;100527.11;524064;1096;65735;-62
2020/12/19 01:13:10;;;;;;;73.10;45.10;;;;;;;-1.67;87.74;100531.41;524022;1096;65595;-63
2020/12/19 01:23:14;;;;;;;69.00;42.63;;;;;;;-1.56;87.91;100533.15;517181;1090;65285;-64
2020/12/19 01:33:18;;;;;;;78.40;46.67;;;;;;;-1.45;88.25;100517.69;517253;1097;65290;-65
2020/12/19 01:43:23;;;;;;;80.37;49.07;;;;;;;-1.35;88.20;100499.66;517319;1097;65317;-65
2020/12/19 01:53:29;;;;;;;98.00;55.05;;;;;;;-1.24;88.75;100492.78;518288;1097;65589;-61
2020/12/19 02:03:33;;;;;;;95.73;53.87;;;;;;;-1.11;88.89;100497.91;518157;1090;65582;-62
2020/12/19 02:13:38;;;;;;;84.10;45.10;;;;;;;-0.96;88.68;100491.88;517364;1097;65195;-71
2020/12/19 02:23:42;;;;;;;72.10;38.83;;;;;;;-0.82;88.72;100477.23;519698;1097;65463;-69
2020/12/19 02:33:46;;;;;;;65.67;37.50;;;;;;;-0.76;88.52;100466.91;519203;1097;65293;-61
2020/12/19 02:43:55;;;;;;;63.10;35.95;;;;;;;-0.68;89.36;100478.93;517125;1097;65262;-61
2020/12/19 02:53:59;;;;;;;63.43;35.50;;;;;;;-0.61;89.00;100463.42;517783;1090;65540;-61
2020/12/19 03:04:03;;;;;;;58.90;31.40;;;;;;;-0.54;88.94;100443.61;517659;1095;65314;-61
2020/12/19 03:14:09;;;;;;;50.73;27.80;;;;;;;-0.51;89.30;100441.01;517872;1090;65573;-60
2020/12/19 03:24:13;;;;;;;55.30;29.25;;;;;;;-0.51;89.05;100445.33;517585;1095;65179;-62
2020/12/19 03:34:17;;;;;;;52.90;29.40;;;;;;;-0.51;89.19;100443.59;517674;1095;65181;-61
2020/12/19 03:44:21;;;;;;;44.70;22.37;;;;;;;-0.58;88.35;100436.73;517614;1095;65524;-60
2020/12/19 03:54:25;;;;;;;40.43;24.17;;;;;;;-0.51;88.66;100424.69;517450;1095;65157;-60
2020/12/19 04:04:29;;;;;;;38.67;22.63;;;;;;;-0.47;88.41;100422.05;517730;1097;65591;-61
2020/12/19 04:14:40;;;;;;;40.17;23.73;;;;;;;-0.41;88.72;100408.27;518010;1095;65298;-61
2020/12/19 04:24:44;;;;;;;42.90;21.07;;;;;;;-0.44;88.79;100427.22;517802;1090;65217;-60
2020/12/19 04:34:48;;;;;;;49.25;27.00;;;;;;;-0.50;88.58;100419.50;517503;1095;65585;-60
2020/12/19 04:44:59;;;;;;;35.70;19.73;;;;;;;-0.43;89.38;100418.61;517657;1095;65582;-60
2020/12/19 04:55:06;;;;;;;37.20;21.35;;;;;;;-0.50;88.53;100404.02;517729;1095;65182;-60
2020/12/19 05:05:10;;;;;;;41.30;21.90;;;;;;;-0.51;88.34;100407.47;517631;1097;65246;-60
2020/12/19 05:15:16;;;;;;;36.35;19.60;;;;;;;-0.53;89.87;100405.75;517636;1095;65179;-60
2020/12/19 05:25:23;;;;;;;34.40;18.87;;;;;;;-0.52;88.92;100402.30;517703;1090;65201;-61
2020/12/19 05:35:27;;;;;;;36.77;18.85;;;;;;;-0.55;89.04;100395.45;517674;1095;65648;-61
2020/12/19 05:45:33;;;;;;;31.13;15.97;;;;;;;-0.51;89.92;100404.88;517529;1095;65565;-63
2020/12/19 05:55:38;;;;;;;30.53;17.07;;;;;;;-0.48;89.41;100401.44;517498;1098;65258;-61
2020/12/19 06:05:42;;;;;;;30.83;16.27;;;;;;;-0.48;90.36;100398.86;517694;1095;65687;-60
2020/12/19 06:15:56;;;;;;;28.80;17.07;;;;;;;-0.48;89.36;100399.70;517607;1095;65357;-60
2020/12/19 06:26:01;;;;;;;33.50;16.23;;;;;;;-0.42;89.77;100403.97;517718;1095;65258;-62
2020/12/19 06:36:16;;;;;;;37.15;19.05;;;;;;;-0.43;90.10;100413.45;518096;1095;65185;-60
2020/12/19 06:46:31;;;;;;;30.30;17.53;;;;;;;-0.39;90.15;100416.01;517851;1090;65185;-62
2020/12/19 06:56:35;;;;;;;40.43;20.83;;;;;;;-0.33;90.28;100413.41;517388;1095;65198;-60
2020/12/19 07:07:02;;;;;;;30.87;16.80;;;;;;;-0.28;90.29;100421.97;517370;1095;65317;-60
2020/12/19 07:17:18;;;;;;;35.77;16.80;;;;;;;-0.21;90.55;100427.95;517503;1090;65318;-60
2020/12/19 07:27:22;;;;;;;37.37;17.73;;;;;;;-0.15;90.00;100427.92;517810;1095;65179;-62
2020/12/19 07:37:27;;;;;;;38.07;18.97;;;;;;;-0.08;90.11;100429.58;517843;1097;65258;-63
2020/12/19 07:47:31;;;;;;;35.60;18.60;;;;;;;-0.04;89.62;100430.42;517233;1097;65150;-61
2020/12/19 07:57:35;;;;;;;41.10;19.37;;;;;;;0.10;90.58;100428.59;516427;1090;65329;-59
2020/12/19 08:07:41;;;;;;;35.70;17.83;;;;;;;0.22;89.44;100424.20;517094;1090;65160;-61
2020/12/19 08:17:50;;;;;;;40.60;20.40;;;;;;;0.34;89.68;100429.27;517128;1095;65621;-59
2020/12/19 08:27:55;;;;;;;47.63;23.80;;;;;;;0.44;89.38;100434.36;517722;1095;65244;-62
2020/12/19 08:38:07;;;;;;;38.87;17.50;;;;;;;0.49;89.63;100430.02;518038;1095;65155;-62
2020/12/19 08:48:21;;;;;;;37.37;21.03;;;;;;;0.63;90.26;100438.50;518159;1095;65258;-62
2020/12/19 08:58:31;;;;;;;37.07;19.57;;;;;;;0.77;89.54;100446.13;517762;1095;65147;-62
2020/12/19 09:08:38;;;;;;;35.90;20.60;;;;;;;0.80;89.43;100435.75;517812;1090;65172;-62
2020/12/19 09:18:45;;;;;;;41.30;22.10;;;;;;;0.86;89.60;100421.03;508262;1095;10001183;-61
2020/12/19 09:28:50;;;;;;;36.13;20.30;;;;;;;0.89;89.36;100426.19;525270;1095;65158;-63
2020/12/19 09:38:54;;;;;;;41.70;23.33;;;;;;;1.00;89.03;100407.95;516899;1096;65159;-62
2020/12/19 09:48:58;;;;;;;38.93;23.07;;;;;;;1.05;88.93;100404.45;516896;1097;65610;-62
2020/12/19 09:59:02;;;;;;;43.43;23.83;;;;;;;1.03;88.66;100398.44;517199;1095;65178;-62
2020/12/19 10:09:05;;;;;;;47.33;23.30;;;;;;;1.00;89.14;100395.90;516911;1090;65687;-62
2020/12/19 10:19:11;;;;;;;45.40;24.00;;;;;;;1.17;88.81;100403.45;516933;1090;65179;-61
2020/12/19 10:29:16;;;;;;;46.20;22.97;;;;;;;1.21;88.54;100391.31;517375;1095;66601;-62
2020/12/19 10:39:20;;;;;;;52.23;30.57;;;;;;;1.21;89.25;100393.91;517229;1095;65304;-62
2020/12/19 10:49:24;;;;;;;40.03;22.37;;;;;;;1.18;88.88;100374.12;516921;1095;65162;-62
2020/12/19 10:59:29;;;;;;;46.93;22.90;;;;;;;1.22;88.88;100378.37;517101;1095;65249;-62
2020/12/19 11:09:33;;;;;;;45.57;22.30;;;;;;;1.26;88.78;100379.19;517069;1097;65634;-60
2020/12/19 11:19:37;;;;;;;46.53;24.80;;;;;;;1.30;88.97;100369.66;517098;1095;65196;-60
2020/12/19 11:29:41;;;;;;;49.85;25.90;;;;;;;1.22;88.47;100360.26;516941;1090;65153;-60
2020/12/19 11:39:45;;;;;;;60.80;29.03;;;;;;;1.14;88.57;100361.24;517042;1096;65179;-59
2020/12/19 11:49:49;;;;;;;50.10;26.33;;;;;;;1.14;89.13;100349.14;517288;1096;65178;-61
2020/12/19 11:59:53;;;;;;;46.83;24.73;;;;;;;1.08;89.07;100338.89;516929;1096;65470;-60
2020/12/19 12:09:57;;;;;;;49.30;28.57;;;;;;;1.06;89.30;100343.23;517600;1090;65152;-61
2020/12/19 12:20:01;;;;;;;49.90;26.43;;;;;;;1.09;89.19;100335.43;517620;1096;65163;-67
2020/12/19 12:30:06;;;;;;;52.85;32.25;;;;;;;1.16;89.64;100336.20;517175;1090;65258;-65
2020/12/19 12:40:09;;;;;;;51.93;28.03;;;;;;;1.18;89.04;100319.79;516744;1097;65214;-65
2020/12/19 12:50:14;;;;;;;48.83;27.67;;;;;;;1.10;88.86;100322.48;517191;1096;65508;-65
2020/12/19 13:00:18;;;;;;;69.75;34.20;;;;;;;1.20;89.78;100320.62;516611;1095;65236;-66
2020/12/19 13:10:22;;;;;;;59.03;30.13;;;;;;;1.28;89.97;100317.92;516738;1090;65162;-63
2020/12/19 13:20:25;;;;;;;56.33;29.33;;;;;;;1.27;89.32;100316.22;516894;1093;65777;-64
2020/12/19 13:30:29;;;;;;;61.80;33.47;;;;;;;1.31;89.64;100323.05;517219;1095;65163;-64
2020/12/19 13:40:37;;;;;;;56.67;30.83;;;;;;;1.38;89.88;100318.64;517134;1090;65410;-65
2020/12/19 13:50:40;;;;;;;59.98;31.77;;;;;;;1.37;89.72;100328.15;516770;1090;65255;-64
2020/12/19 14:00:44;;;;;;;58.63;32.50;;;;;;;1.38;89.42;100344.52;516245;1095;65531;-64
2020/12/19 14:10:48;;;;;;;64.67;34.10;;;;;;;1.38;89.61;100347.97;523014;1095;65162;-64
2020/12/19 14:20:52;;;;;;;80.17;39.77;;;;;;;1.39;89.35;100360.03;520813;1095;65133;-65
2020/12/19 14:30:56;;;;;;;88.50;42.57;;;;;;;1.26;89.47;100361.92;517621;1095;65159;-65
2020/12/19 14:41:02;;;;;;;77.80;37.17;;;;;;;1.18;89.78;100358.59;517806;1095;65162;-68
2020/12/19 14:51:10;;;;;;;91.73;39.93;;;;;;;1.12;89.45;100361.25;518076;1090;65515;-64
2020/12/19 15:01:15;;;;;;;78.07;39.33;;;;;;;1.05;90.02;100357.05;508249;1090;10001578;-66
2020/12/19 15:11:20;;;;;;;86.45;39.20;;;;;;;1.07;90.15;100361.30;516428;1090;65271;-62
2020/12/19 15:21:25;;;;;;;86.57;43.67;;;;;;;1.09;90.12;100371.64;517005;1090;65288;-62
2020/12/19 15:31:29;;;;;;;100.70;47.23;;;;;;;1.09;90.01;100380.24;516924;1090;65217;-64
2020/12/19 15:41:33;;;;;;;93.55;43.45;;;;;;;1.17;89.64;100381.89;517539;1095;65185;-62
2020/12/19 15:51:37;;;;;;;86.80;43.10;;;;;;;1.30;89.90;100383.44;517671;1090;65375;-62
2020/12/19 16:01:43;;;;;;;81.45;44.60;;;;;;;1.39;89.51;100377.31;518512;1096;65182;-63
2020/12/19 16:11:53;;;;;;;101.20;49.63;;;;;;;1.46;90.01;100378.08;516457;1090;65166;-64
2020/12/19 16:21:58;;;;;;;81.23;42.87;;;;;;;1.48;89.62;100373.73;516590;1090;66271;-63
2020/12/19 16:32:02;;;;;;;101.53;49.47;;;;;;;1.50;89.49;100364.20;517336;1090;65643;-67
2020/12/19 16:42:07;;;;;;;92.93;44.73;;;;;;;1.45;89.42;100371.20;516874;1097;65252;-62
2020/12/19 16:52:12;;;;;;;97.97;44.73;;;;;;;1.30;89.72;100360.15;517644;1095;65173;-62
2020/12/19 17:02:20;;;;;;;95.25;43.00;;;;;;;1.20;89.60;100362.02;518148;1096;66226;-65
2020/12/19 17:12:24;;;;;;;89.37;45.10;;;;;;;1.17;89.43;100361.20;517285;1095;65591;-62
2020/12/19 17:22:28;;;;;;;95.63;44.23;;;;;;;1.22;89.67;100357.67;516771;1096;65527;-61
2020/12/19 17:32:32;;;;;;;94.23;46.43;;;;;;;1.20;89.22;100358.56;516508;1095;65555;-61
2020/12/19 17:42:36;;;;;;;90.47;42.83;;;;;;;1.19;88.99;100354.27;523025;1090;65176;-65
2020/12/19 17:52:41;;;;;;;83.25;41.75;;;;;;;1.14;89.57;100346.56;517022;1097;65154;-64
2020/12/19 18:02:45;;;;;;;81.47;41.30;;;;;;;1.13;89.52;100347.44;517501;1090;65262;-66
2020/12/19 18:12:49;;;;;;;94.63;42.90;;;;;;;1.09;89.80;100341.44;517425;1095;65172;-63
2020/12/19 18:22:58;;;;;;;81.57;43.90;;;;;;;1.10;89.47;100355.24;517115;1097;65294;-63
2020/12/19 18:33:03;;;;;;;102.70;48.50;;;;;;;1.11;89.92;100347.47;516727;1097;65282;-65
2020/12/19 18:43:07;;;;;;;96.23;42.10;;;;;;;1.11;89.90;100347.47;516979;1097;65181;-66
2020/12/19 18:53:17;;;;;;;86.90;43.63;;;;;;;1.10;89.93;100353.53;516842;1097;65175;-65
2020/12/19 19:03:21;;;;;;;93.55;44.65;;;;;;;1.08;89.33;100352.66;517369;1097;65328;-69
2020/12/19 19:13:25;;;;;;;92.07;41.57;;;;;;;1.09;89.17;100356.96;517470;1097;65310;-67
2020/12/19 19:23:39;;;;;;;83.30;37.90;;;;;;;1.08;89.75;100352.66;517807;1090;65130;-68
2020/12/19 19:33:43;;;;;;;84.07;44.70;;;;;;;1.11;89.78;100349.19;516837;1090;65159;-69
2020/12/19 19:43:47;;;;;;;80.30;42.40;;;;;;;1.11;89.14;100359.54;516961;1097;65190;-66
2020/12/19 19:53:53;;;;;;;79.97;40.17;;;;;;;1.13;89.16;100370.72;516995;1095;65175;-67
2020/12/19 20:03:57;;;;;;;73.60;38.83;;;;;;;1.19;89.51;100373.24;516574;1095;65327;-66
2020/12/19 20:14:03;;;;;;;66.53;36.73;;;;;;;1.24;89.57;100371.44;516676;1090;65172;-65
2020/12/19 20:24:10;;;;;;;78.10;39.50;;;;;;;1.30;89.76;100383.44;517391;1090;65179;-65
2020/12/19 20:34:15;;;;;;;64.87;34.27;;;;;;;1.30;89.30;100380.02;517419;1095;65466;-65
2020/12/19 20:44:20;;;;;;;69.80;37.83;;;;;;;1.33;89.14;100382.55;526123;1095;65158;-65
2020/12/19 20:54:33;;;;;;;68.55;37.45;;;;;;;1.31;89.08;100385.15;517583;1090;65159;-64
2020/12/19 21:04:37;;;;;;;76.77;40.00;;;;;;;1.34;89.67;100389.44;508328;1093;10001625;-62
2020/12/19 21:14:42;;;;;;;82.50;42.07;;;;;;;1.31;89.68;100394.66;516886;1097;65249;-64
2020/12/19 21:24:50;;;;;;;75.77;39.93;;;;;;;1.30;89.53;100396.37;517190;1095;65179;-63
2020/12/19 21:34:54;;;;;;;75.97;41.13;;;;;;;1.28;88.91;100387.78;517049;1096;65339;-62
2020/12/19 21:44:58;;;;;;;73.90;44.43;;;;;;;1.31;89.66;100389.48;517110;1096;65237;-61
2020/12/19 21:55:08;;;;;;;78.70;43.83;;;;;;;1.34;89.63;100392.02;516660;1097;65615;-61
2020/12/19 22:05:13;;;;;;;75.43;41.60;;;;;;;1.36;89.65;100401.48;516892;1090;66354;-62
2020/12/19 22:15:17;;;;;;;71.53;41.30;;;;;;;1.39;89.46;100404.03;517567;1090;65265;-63
2020/12/19 22:25:25;;;;;;;80.23;42.37;;;;;;;1.39;89.47;100410.95;516860;1097;65537;-66
2020/12/19 22:35:29;;;;;;;75.57;42.20;;;;;;;1.43;89.34;100419.51;517450;1095;65205;-67
2020/12/19 22:45:33;;;;;;;70.90;40.27;;;;;;;1.45;89.26;100416.03;517331;1097;65906;-67
2020/12/19 22:55:47;;;;;;;75.63;42.07;;;;;;;1.47;89.27;100406.51;517707;1096;65163;-67
2020/12/19 23:05:51;;;;;;;66.17;40.43;;;;;;;1.47;89.33;100414.27;517156;1090;65514;-67
2020/12/19 23:15:55;;;;;;;70.93;40.73;;;;;;;1.49;89.39;100432.39;516962;1095;65290;-66
2020/12/19 23:26:02;;;;;;;73.15;44.45;;;;;;;1.49;89.48;100411.67;516838;1095;65233;-68
2020/12/19 23:36:06;;;;;;;66.77;39.73;;;;;;;1.48;89.37;100404.79;516600;1090;65150;-70
2020/12/19 23:46:14;;;;;;;74.53;42.37;;;;;;;1.45;88.85;100408.27;517951;1095;65179;-67
2020/12/19 23:56:23;;;;;;;64.43;36.87;;;;;;;1.44;88.89;100405.69;518135;1095;65585;-63
